Time;durP1;ratioP1;P1;durP2;ratioP2;P2;SDS_P1;SDS_P2;PMS_P1;PMS_P2;Temp;Humidity;BMP_temperature;BMP_pressure;BME280_temperature;BME280_humidity;BME280_pressure;Samples;Min_cycle;Max_cycle;Signal;HPM_P1;HPM_P2
2023/08/21 00:00:22;;;;;;;5.00;1.40;;;;;;;;;;5061033;28;20025;-92
2023/08/21 00:02:48;;;;;;;4.72;1.45;;;;;;;;;;5070108;28;20029;-91
2023/08/21 00:05:13;;;;;;;4.47;1.55;;;;;;;;;;5061367;28;20020;-91
2023/08/21 00:07:39;;;;;;;10.80;1.90;;;;;;;;;;5059973;28;20047;-91
2023/08/21 00:10:08;;;;;;;8.98;1.85;;;;;;;;;;5077737;28;20021;-92
2023/08/21 00:12:34;;;;;;;5.20;1.35;;;;;;;;;;5047855;28;20012;-90
2023/08/21 00:14:59;;;;;;;4.57;1.50;;;;;;;;;;5061091;28;20313;-91
2023/08/21 00:17:28;;;;;;;4.07;1.38;;;;;;;;;;5077577;28;20021;-90
2023/08/21 00:19:55;;;;;;;5.07;1.52;;;;;;;;;;5058172;28;20040;-91
2023/08/21 00:22:21;;;;;;;6.07;1.83;;;;;;;;;;5073872;28;20040;-91
2023/08/21 00:24:46;;;;;;;8.80;1.67;;;;;;;;;;5058081;28;20034;-91
2023/08/21 00:27:15;;;;;;;6.75;1.80;;;;;;;;;;5057930;28;20127;-91
2023/08/21 00:29:40;;;;;;;10.40;1.95;;;;;;;;;;5073079;28;20516;-91
2023/08/21 00:32:06;;;;;;;9.30;2.03;;;;;;;;;;5075684;28;20052;-91
2023/08/21 00:34:32;;;;;;;7.38;1.90;;;;;;;;;;5075163;28;20020;-91
2023/08/21 00:36:57;;;;;;;5.60;1.33;;;;;;;;;;5074306;28;20084;-91
2023/08/21 00:39:22;;;;;;;11.05;1.80;;;;;;;;;;5056608;28;20028;-91
2023/08/21 00:41:48;;;;;;;2.97;1.50;;;;;;;;;;5057883;28;20093;-91
2023/08/21 00:44:13;;;;;;;11.18;2.28;;;;;;;;;;5057705;28;20040;-92
2023/08/21 00:46:38;;;;;;;6.15;1.73;;;;;;;;;;5090756;28;20028;-91
2023/08/21 00:49:04;;;;;;;7.50;1.70;;;;;;;;;;5057472;28;20028;-92
2023/08/21 00:51:37;;;;;;;6.53;1.50;;;;;;;;;;5073041;28;20150;-91
2023/08/21 00:54:02;;;;;;;6.05;1.52;;;;;;;;;;5057248;28;20020;-92
2023/08/21 00:56:28;;;;;;;8.40;1.70;;;;;;;;;;5057313;28;20024;-92
2023/08/21 00:58:53;;;;;;;8.77;1.83;;;;;;;;;;5074069;28;20066;-90
2023/08/21 01:01:21;;;;;;;7.60;1.70;;;;;;;;;;5057003;28;20051;-91
2023/08/21 01:03:47;;;;;;;5.68;1.58;;;;;;;;;;5057642;28;20027;-91
2023/08/21 01:06:12;;;;;;;9.02;1.75;;;;;;;;;;5057564;28;20100;-91
2023/08/21 01:08:54;;;;;;;5.75;1.63;;;;;;;;;;5057230;28;20047;-90
2023/08/21 01:11:38;;;;;;;5.40;1.50;;;;;;;;;;5053663;28;20407;-91
2023/08/21 01:14:14;;;;;;;6.03;1.75;;;;;;;;;;5073573;28;20025;-91
2023/08/21 01:16:40;;;;;;;9.30;1.98;;;;;;;;;;5073626;28;20029;-91
2023/08/21 01:19:09;;;;;;;5.75;2.13;;;;;;;;;;5069521;28;20246;-91
2023/08/21 01:21:34;;;;;;;7.32;1.60;;;;;;;;;;5056061;28;20028;-91
2023/08/21 01:23:59;;;;;;;7.45;1.92;;;;;;;;;;5057162;28;20519;-90
2023/08/21 01:26:25;;;;;;;5.30;1.70;;;;;;;;;;5075758;28;20020;-91
2023/08/21 01:28:50;;;;;;;5.10;1.48;;;;;;;;;;5075705;28;20047;-92
2023/08/21 01:31:22;;;;;;;7.40;1.90;;;;;;;;;;5057932;28;20021;-91
2023/08/21 01:33:50;;;;;;;6.35;2.10;;;;;;;;;;5058151;28;20028;-91
2023/08/21 01:36:17;;;;;;;6.65;1.88;;;;;;;;;;5057740;28;20468;-92
2023/08/21 01:38:43;;;;;;;4.57;1.80;;;;;;;;;;5060106;28;20048;-91
2023/08/21 01:41:08;;;;;;;7.80;1.85;;;;;;;;;;5075737;28;20111;-91
2023/08/21 01:43:33;;;;;;;6.20;1.73;;;;;;;;;;5058179;28;20468;-91
2023/08/21 01:46:03;;;;;;;5.80;1.70;;;;;;;;;;5056599;28;20039;-90
2023/08/21 01:48:31;;;;;;;4.65;1.45;;;;;;;;;;5076854;28;20538;-90
2023/08/21 01:50:56;;;;;;;7.07;2.40;;;;;;;;;;5073055;28;20128;-91
2023/08/21 01:53:22;;;;;;;7.30;1.60;;;;;;;;;;5054612;28;20024;-92
2023/08/21 01:55:47;;;;;;;9.55;1.80;;;;;;;;;;5055810;28;20063;-91
2023/08/21 01:58:12;;;;;;;8.90;1.80;;;;;;;;;;5066052;28;20025;-90
2023/08/21 02:00:37;;;;;;;4.30;1.67;;;;;;;;;;5056003;28;20020;-91
2023/08/21 02:03:03;;;;;;;5.20;1.90;;;;;;;;;;5088427;28;20021;-91
2023/08/21 02:05:28;;;;;;;8.02;2.10;;;;;;;;;;5060655;28;20012;-91
2023/08/21 02:07:53;;;;;;;5.35;1.67;;;;;;;;;;5063706;28;20017;-90
2023/08/21 02:10:19;;;;;;;8.23;1.83;;;;;;;;;;5054611;28;20036;-90
2023/08/21 02:12:44;;;;;;;5.10;1.50;;;;;;;;;;5056142;28;20032;-91
2023/08/21 02:15:10;;;;;;;9.07;1.95;;;;;;;;;;5055199;28;20021;-91
2023/08/21 02:17:37;;;;;;;9.35;1.80;;;;;;;;;;5055102;28;20053;-90
2023/08/21 02:20:03;;;;;;;11.00;1.90;;;;;;;;;;5072837;28;20364;-90
2023/08/21 02:22:28;;;;;;;4.15;1.38;;;;;;;;;;5055326;28;20023;-91
2023/08/21 02:24:54;;;;;;;4.50;1.48;;;;;;;;;;5055788;28;20447;-90
2023/08/21 02:27:19;;;;;;;4.28;1.65;;;;;;;;;;5055509;28;20021;-91
2023/08/21 02:29:44;;;;;;;5.90;2.03;;;;;;;;;;5067134;28;20070;-91
2023/08/21 02:32:09;;;;;;;3.40;1.60;;;;;;;;;;5055785;28;20023;-92
2023/08/21 02:34:35;;;;;;;4.15;1.63;;;;;;;;;;5055590;28;20017;-91
2023/08/21 02:37:00;;;;;;;5.53;1.52;;;;;;;;;;5055343;28;20021;-91
2023/08/21 02:39:26;;;;;;;9.93;1.80;;;;;;;;;;5056385;28;20066;-91
2023/08/21 02:41:51;;;;;;;4.60;1.75;;;;;;;;;;5054860;28;20090;-91
2023/08/21 02:44:16;;;;;;;8.40;1.83;;;;;;;;;;5073340;28;20082;-91
2023/08/21 02:46:42;;;;;;;5.82;1.63;;;;;;;;;;5088583;28;20016;-91
2023/08/21 02:49:07;;;;;;;8.73;1.60;;;;;;;;;;5055698;28;20023;-91
2023/08/21 02:51:33;;;;;;;7.30;2.10;;;;;;;;;;5053319;28;20020;-91
2023/08/21 02:53:58;;;;;;;5.03;1.40;;;;;;;;;;5056801;28;20016;-90
2023/08/21 02:56:27;;;;;;;6.47;1.73;;;;;;;;;;5056141;28;20075;-91
2023/08/21 02:58:55;;;;;;;5.70;1.83;;;;;;;;;;5056323;28;20025;-91
2023/08/21 03:01:21;;;;;;;6.28;1.80;;;;;;;;;;5057103;28;20024;-91
2023/08/21 03:03:46;;;;;;;5.53;1.90;;;;;;;;;;5056764;28;20131;-91
2023/08/21 03:06:11;;;;;;;6.30;1.95;;;;;;;;;;5074771;28;20028;-91
2023/08/21 03:08:37;;;;;;;8.52;1.83;;;;;;;;;;5056072;28;20021;-90
2023/08/21 03:11:02;;;;;;;6.45;2.03;;;;;;;;;;5054007;28;20021;-90
2023/08/21 03:13:28;;;;;;;5.70;1.80;;;;;;;;;;5073094;28;20013;-90
2023/08/21 03:15:55;;;;;;;4.38;2.10;;;;;;;;;;5072841;28;20020;-91
2023/08/21 03:18:21;;;;;;;8.18;1.70;;;;;;;;;;5059481;28;20599;-92
2023/08/21 03:20:46;;;;;;;7.60;2.00;;;;;;;;;;5049974;28;20112;-88
2023/08/21 03:23:12;;;;;;;8.75;1.85;;;;;;;;;;5054809;28;20491;-92
2023/08/21 03:25:37;;;;;;;7.40;1.80;;;;;;;;;;5051637;28;20012;-91
2023/08/21 03:28:03;;;;;;;6.78;2.63;;;;;;;;;;5074161;28;20103;-91
2023/08/21 03:30:28;;;;;;;5.70;1.98;;;;;;;;;;5063279;28;20021;-90
2023/08/21 03:32:54;;;;;;;9.70;2.50;;;;;;;;;;5072226;28;20021;-90
2023/08/21 03:35:19;;;;;;;12.45;2.47;;;;;;;;;;5054920;28;20031;-91
2023/08/21 03:37:44;;;;;;;9.70;2.28;;;;;;;;;;5055061;28;20013;-91
2023/08/21 03:40:10;;;;;;;9.05;1.88;;;;;;;;;;5058869;28;20016;-91
2023/08/21 03:42:35;;;;;;;11.07;2.20;;;;;;;;;;5060771;28;20070;-91
2023/08/21 03:45:01;;;;;;;7.38;2.03;;;;;;;;;;5057803;28;20581;-90
2023/08/21 03:47:26;;;;;;;9.73;2.30;;;;;;;;;;5054322;28;20031;-91
2023/08/21 03:49:51;;;;;;;7.07;2.33;;;;;;;;;;5072386;28;20044;-90
2023/08/21 03:52:16;;;;;;;4.03;1.58;;;;;;;;;;5051364;28;20024;-90
2023/08/21 03:54:44;;;;;;;6.03;1.90;;;;;;;;;;5052363;28;20012;-90
2023/08/21 03:57:09;;;;;;;4.03;2.00;;;;;;;;;;5071446;28;20430;-91
2023/08/21 03:59:37;;;;;;;5.15;2.20;;;;;;;;;;5064432;28;20032;-91
2023/08/21 04:02:02;;;;;;;7.68;2.45;;;;;;;;;;5054525;28;20490;-90
2023/08/21 04:04:28;;;;;;;6.72;2.25;;;;;;;;;;5053489;28;20020;-91
2023/08/21 04:06:56;;;;;;;10.15;2.10;;;;;;;;;;5054442;28;20020;-90
2023/08/21 04:09:21;;;;;;;5.18;1.95;;;;;;;;;;5061555;28;20115;-90
2023/08/21 04:11:47;;;;;;;6.00;2.42;;;;;;;;;;5050730;28;20063;-90
2023/08/21 04:14:12;;;;;;;6.03;2.25;;;;;;;;;;5054804;28;20020;-91
2023/08/21 04:16:40;;;;;;;2.55;1.70;;;;;;;;;;5055688;28;20443;-91
2023/08/21 04:19:05;;;;;;;6.53;2.05;;;;;;;;;;5089056;28;20421;-91
2023/08/21 04:21:31;;;;;;;3.65;1.95;;;;;;;;;;5063829;28;20073;-91
2023/08/21 04:23:56;;;;;;;9.40;2.30;;;;;;;;;;5056666;28;20035;-91
2023/08/21 04:26:21;;;;;;;8.30;2.55;;;;;;;;;;5058254;28;20009;-91
2023/08/21 04:28:47;;;;;;;5.15;1.95;;;;;;;;;;5071684;28;20054;-91
2023/08/21 04:31:13;;;;;;;5.07;1.88;;;;;;;;;;5062809;28;20021;-90
2023/08/21 04:33:38;;;;;;;8.23;1.90;;;;;;;;;;5049194;28;20025;-90
2023/08/21 04:36:04;;;;;;;10.15;2.45;;;;;;;;;;5053460;28;20017;-91
2023/08/21 04:38:29;;;;;;;4.53;2.22;;;;;;;;;;5075286;28;20025;-91
2023/08/21 04:40:55;;;;;;;5.82;2.45;;;;;;;;;;5059440;28;20031;-90
2023/08/21 04:43:20;;;;;;;7.60;2.42;;;;;;;;;;5057586;28;20111;-91
2023/08/21 04:45:55;;;;;;;7.63;2.10;;;;;;;;;;5057395;28;20021;-90
2023/08/21 04:48:21;;;;;;;10.20;2.33;;;;;;;;;;5057526;28;20348;-90
2023/08/21 04:50:48;;;;;;;5.05;2.33;;;;;;;;;;5063665;28;20031;-90
2023/08/21 04:53:14;;;;;;;6.95;2.55;;;;;;;;;;5049088;28;20066;-90
2023/08/21 04:55:40;;;;;;;4.25;1.98;;;;;;;;;;5057158;28;20020;-90
2023/08/21 04:58:08;;;;;;;4.93;2.08;;;;;;;;;;5057155;28;20055;-90
2023/08/21 05:00:33;;;;;;;12.07;2.55;;;;;;;;;;5056966;28;20025;-90
2023/08/21 05:03:01;;;;;;;6.30;2.22;;;;;;;;;;5056072;28;20760;-90
2023/08/21 05:05:26;;;;;;;7.97;2.40;;;;;;;;;;5074966;28;20391;-90
2023/08/21 05:07:52;;;;;;;11.10;2.53;;;;;;;;;;5075389;28;20016;-90
2023/08/21 05:10:18;;;;;;;7.20;2.55;;;;;;;;;;5073660;28;20013;-91
2023/08/21 05:12:43;;;;;;;5.70;3.20;;;;;;;;;;5074205;28;20054;-90
2023/08/21 05:15:09;;;;;;;9.23;2.60;;;;;;;;;;5057297;28;20024;-91
2023/08/21 05:17:34;;;;;;;3.92;2.40;;;;;;;;;;5057147;28;20016;-90
2023/08/21 05:19:59;;;;;;;8.82;2.50;;;;;;;;;;5057175;28;20029;-90
2023/08/21 05:22:25;;;;;;;7.20;2.13;;;;;;;;;;5057326;28;20535;-90
2023/08/21 05:24:50;;;;;;;6.63;2.50;;;;;;;;;;5073708;28;20028;-90
2023/08/21 05:27:15;;;;;;;10.70;1.98;;;;;;;;;;5056063;28;20039;-91
2023/08/21 05:29:41;;;;;;;10.55;2.97;;;;;;;;;;5057276;28;20025;-90
2023/08/21 05:32:06;;;;;;;11.35;2.58;;;;;;;;;;5065707;28;20021;-91
2023/08/21 05:34:32;;;;;;;9.30;2.80;;;;;;;;;;5071631;28;20040;-90
2023/08/21 05:36:58;;;;;;;9.38;2.58;;;;;;;;;;5073425;28;20206;-90
2023/08/21 05:39:23;;;;;;;10.88;3.25;;;;;;;;;;5056653;28;20086;-90
2023/08/21 05:41:48;;;;;;;5.65;2.90;;;;;;;;;;5057565;28;20052;-91
2023/08/21 05:44:16;;;;;;;7.18;2.97;;;;;;;;;;5066474;28;20472;-90
2023/08/21 05:46:41;;;;;;;8.50;3.65;;;;;;;;;;5057921;28;20029;-90
2023/08/21 05:49:07;;;;;;;8.85;3.75;;;;;;;;;;5057902;28;20321;-91
2023/08/21 05:51:32;;;;;;;6.90;3.38;;;;;;;;;;5058558;28;20013;-90
2023/08/21 05:53:58;;;;;;;8.40;3.15;;;;;;;;;;5058688;28;20029;-91
2023/08/21 05:56:23;;;;;;;15.13;3.13;;;;;;;;;;5090326;28;20452;-90
2023/08/21 05:58:49;;;;;;;9.68;4.07;;;;;;;;;;5056219;28;20017;-90
2023/08/21 06:01:14;;;;;;;13.75;4.75;;;;;;;;;;5073434;28;20055;-91
2023/08/21 06:03:40;;;;;;;11.60;4.07;;;;;;;;;;5056847;28;20088;-90
2023/08/21 06:06:05;;;;;;;9.73;4.28;;;;;;;;;;5056911;28;20098;-91
2023/08/21 06:08:30;;;;;;;9.88;4.05;;;;;;;;;;5056155;28;20032;-90
2023/08/21 06:10:56;;;;;;;10.23;4.05;;;;;;;;;;5054750;28;20042;-91
2023/08/21 06:13:21;;;;;;;10.02;4.10;;;;;;;;;;5055837;28;20047;-91
2023/08/21 06:15:49;;;;;;;9.43;3.63;;;;;;;;;;5056042;28;20032;-91
2023/08/21 06:18:15;;;;;;;12.43;4.20;;;;;;;;;;5073155;28;20032;-91
2023/08/21 06:20:43;;;;;;;11.98;4.60;;;;;;;;;;5056187;28;20024;-91
2023/08/21 06:23:11;;;;;;;11.50;4.13;;;;;;;;;;5055211;28;20028;-91
2023/08/21 06:25:37;;;;;;;15.25;4.32;;;;;;;;;;5055398;28;20021;-91
2023/08/21 06:28:12;;;;;;;15.50;4.68;;;;;;;;;;5055853;28;20464;-92
2023/08/21 06:30:37;;;;;;;15.30;3.95;;;;;;;;;;5066134;28;20029;-91
2023/08/21 06:33:02;;;;;;;14.10;4.07;;;;;;;;;;5055995;28;20016;-91
2023/08/21 06:35:28;;;;;;;16.15;4.60;;;;;;;;;;5071430;28;20021;-92
2023/08/21 06:37:55;;;;;;;19.15;4.88;;;;;;;;;;5055054;28;20085;-92
2023/08/21 06:40:21;;;;;;;15.07;4.30;;;;;;;;;;5072087;28;20024;-91
2023/08/21 06:42:46;;;;;;;13.63;3.55;;;;;;;;;;5071676;28;20020;-91
2023/08/21 06:45:11;;;;;;;9.60;4.32;;;;;;;;;;5055345;28;20020;-90
2023/08/21 06:47:37;;;;;;;16.15;3.88;;;;;;;;;;5055444;28;20021;-91
2023/08/21 06:50:02;;;;;;;9.68;3.65;;;;;;;;;;5054686;28;20443;-91
2023/08/21 06:52:27;;;;;;;12.50;3.65;;;;;;;;;;5054647;28;20024;-91
2023/08/21 06:54:53;;;;;;;9.05;3.63;;;;;;;;;;5055045;28;20024;-91
2023/08/21 06:57:18;;;;;;;16.58;4.03;;;;;;;;;;5073029;28;20147;-91
2023/08/21 06:59:46;;;;;;;15.63;4.63;;;;;;;;;;5055742;28;20020;-90
2023/08/21 07:02:14;;;;;;;9.20;3.88;;;;;;;;;;5072852;28;20028;-91
2023/08/21 07:04:39;;;;;;;11.30;3.45;;;;;;;;;;5055619;28;20082;-91
2023/08/21 07:07:04;;;;;;;9.20;3.15;;;;;;;;;;5056670;28;20371;-92
2023/08/21 07:09:30;;;;;;;10.88;3.38;;;;;;;;;;5056562;28;20035;-91
2023/08/21 07:11:57;;;;;;;15.32;3.90;;;;;;;;;;5055337;28;20170;-90
2023/08/21 07:14:23;;;;;;;14.35;3.95;;;;;;;;;;5056704;28;20021;-91
2023/08/21 07:16:53;;;;;;;21.90;4.28;;;;;;;;;;5055757;28;20023;-91
2023/08/21 07:19:19;;;;;;;11.05;3.20;;;;;;;;;;5073013;28;20052;-91
2023/08/21 07:21:47;;;;;;;20.75;3.42;;;;;;;;;;5073067;28;20078;-91
2023/08/21 07:24:12;;;;;;;11.65;3.15;;;;;;;;;;5049809;28;20029;-91
2023/08/21 07:26:37;;;;;;;12.63;3.20;;;;;;;;;;5089458;28;20028;-92
2023/08/21 07:29:06;;;;;;;7.15;2.60;;;;;;;;;;5073392;28;20029;-91
2023/08/21 07:31:31;;;;;;;6.63;2.22;;;;;;;;;;5052982;28;20020;-90
2023/08/21 07:33:59;;;;;;;7.82;2.60;;;;;;;;;;5055606;28;20020;-90
2023/08/21 07:36:24;;;;;;;6.43;2.67;;;;;;;;;;5067503;28;20467;-90
2023/08/21 07:38:50;;;;;;;11.45;2.42;;;;;;;;;;5045969;28;20021;-90
2023/08/21 07:41:15;;;;;;;7.07;2.03;;;;;;;;;;5054084;28;20020;-90
2023/08/21 07:43:41;;;;;;;6.60;2.20;;;;;;;;;;5055183;28;20029;-91
2023/08/21 07:46:08;;;;;;;12.73;2.47;;;;;;;;;;5054930;28;20120;-90
2023/08/21 07:48:33;;;;;;;13.45;2.05;;;;;;;;;;5072054;28;20017;-90
2023/08/21 07:50:59;;;;;;;9.88;2.83;;;;;;;;;;5050541;28;20043;-90
2023/08/21 07:53:25;;;;;;;18.90;2.83;;;;;;;;;;5053337;28;20305;-91
2023/08/21 07:55:50;;;;;;;9.32;2.00;;;;;;;;;;5054640;28;20040;-91
2023/08/21 07:58:16;;;;;;;4.57;1.45;;;;;;;;;;5055011;28;20031;-90
2023/08/21 08:00:42;;;;;;;9.57;2.10;;;;;;;;;;5073326;28;20016;-90
2023/08/21 08:03:08;;;;;;;9.18;1.70;;;;;;;;;;5055095;28;20103;-91
2023/08/21 08:05:33;;;;;;;10.77;2.10;;;;;;;;;;5076747;28;20016;-91
2023/08/21 08:07:59;;;;;;;10.68;1.80;;;;;;;;;;5058754;28;20043;-91
2023/08/21 08:10:24;;;;;;;5.45;1.83;;;;;;;;;;5058932;28;20016;-90
2023/08/21 08:12:50;;;;;;;9.00;1.25;;;;;;;;;;5058105;28;20139;-90
2023/08/21 08:15:15;;;;;;;7.82;1.70;;;;;;;;;;5061140;28;20071;-90
2023/08/21 08:17:40;;;;;;;5.78;1.58;;;;;;;;;;5058224;28;20035;-91
2023/08/21 08:20:06;;;;;;;9.82;1.80;;;;;;;;;;5058087;28;20037;-91
2023/08/21 08:22:31;;;;;;;14.40;1.67;;;;;;;;;;5074227;28;20020;-90
2023/08/21 08:24:57;;;;;;;8.55;1.75;;;;;;;;;;5077925;28;20023;-91
2023/08/21 08:27:22;;;;;;;6.07;1.40;;;;;;;;;;5058013;28;20097;-90
2023/08/21 08:29:49;;;;;;;9.50;1.95;;;;;;;;;;5058308;28;20412;-91
2023/08/21 08:32:14;;;;;;;9.70;1.90;;;;;;;;;;5057344;28;20023;-91
2023/08/21 08:34:40;;;;;;;4.70;1.55;;;;;;;;;;5076533;28;20017;-90
2023/08/21 08:37:05;;;;;;;11.60;1.75;;;;;;;;;;5060246;28;20033;-91
2023/08/21 08:39:33;;;;;;;9.15;1.67;;;;;;;;;;5060510;28;20035;-90
2023/08/21 08:42:05;;;;;;;5.55;1.20;;;;;;;;;;5060160;28;20020;-91
2023/08/21 08:44:34;;;;;;;16.73;2.15;;;;;;;;;;5077785;28;20032;-92
2023/08/21 08:47:00;;;;;;;8.20;1.58;;;;;;;;;;5075953;28;20021;-91
2023/08/21 08:49:26;;;;;;;8.18;1.55;;;;;;;;;;5060893;28;20015;-92
2023/08/21 08:51:53;;;;;;;6.20;1.80;;;;;;;;;;5060373;28;20099;-91
2023/08/21 08:54:19;;;;;;;9.77;1.42;;;;;;;;;;5049481;28;20024;-91
2023/08/21 08:56:45;;;;;;;6.40;1.40;;;;;;;;;;5057105;28;20413;-91
2023/08/21 08:59:10;;;;;;;15.15;2.13;;;;;;;;;;5058270;28;20036;-89
2023/08/21 09:01:35;;;;;;;6.10;1.33;;;;;;;;;;5061679;28;20016;-90
2023/08/21 09:04:04;;;;;;;6.63;1.65;;;;;;;;;;5057543;28;20119;-90
2023/08/21 09:06:29;;;;;;;7.38;1.20;;;;;;;;;;5057523;28;20391;-90
2023/08/21 09:08:56;;;;;;;7.38;1.15;;;;;;;;;;5057450;28;20047;-90
2023/08/21 09:11:21;;;;;;;10.02;1.13;;;;;;;;;;5056231;28;20027;-90
2023/08/21 09:13:53;;;;;;;8.27;1.48;;;;;;;;;;5071427;28;20028;-90
2023/08/21 09:16:19;;;;;;;9.57;1.83;;;;;;;;;;5075190;28;20032;-90
2023/08/21 09:18:48;;;;;;;8.75;1.20;;;;;;;;;;5072644;28;20020;-90
2023/08/21 09:21:15;;;;;;;5.90;1.20;;;;;;;;;;5072730;28;20036;-90
2023/08/21 09:23:41;;;;;;;12.18;1.50;;;;;;;;;;5054609;28;20479;-90
2023/08/21 09:26:09;;;;;;;7.60;1.58;;;;;;;;;;5057274;28;20020;-90
2023/08/21 09:28:34;;;;;;;5.97;1.25;;;;;;;;;;5057054;28;20043;-89
2023/08/21 09:31:00;;;;;;;12.38;1.60;;;;;;;;;;5056764;28;20460;-90
2023/08/21 09:33:25;;;;;;;8.18;1.80;;;;;;;;;;5056552;28;20480;-90
2023/08/21 09:35:52;;;;;;;7.13;1.60;;;;;;;;;;5054685;28;20032;-89
2023/08/21 09:38:18;;;;;;;7.57;1.38;;;;;;;;;;5045851;28;20036;-91
2023/08/21 09:40:53;;;;;;;4.43;1.00;;;;;;;;;;5075061;28;20094;-90
2023/08/21 09:43:19;;;;;;;5.00;1.00;;;;;;;;;;5073860;28;20031;-90
2023/08/21 09:45:49;;;;;;;6.75;1.85;;;;;;;;;;5072833;28;20024;-90
2023/08/21 09:48:14;;;;;;;5.05;1.17;;;;;;;;;;5056641;28;20099;-90
2023/08/21 09:50:42;;;;;;;2.38;0.90;;;;;;;;;;5063629;28;20047;-90
2023/08/21 09:53:08;;;;;;;11.52;1.40;;;;;;;;;;5060014;28;20017;-90
2023/08/21 09:55:34;;;;;;;5.13;1.10;;;;;;;;;;5073283;28;20024;-90
2023/08/21 09:58:00;;;;;;;6.38;1.20;;;;;;;;;;5059206;28;20061;-90
2023/08/21 10:00:29;;;;;;;2.85;1.00;;;;;;;;;;5056379;28;20020;-90
2023/08/21 10:03:01;;;;;;;6.78;1.02;;;;;;;;;;5056202;28;20025;-90
2023/08/21 10:05:26;;;;;;;;;;;;;;;;;;5055266;28;20048;-89
2023/08/21 10:07:53;;;;;;;7.72;1.17;;;;;;;;;;5055352;28;19904;-90
2023/08/21 10:10:19;;;;;;;4.30;1.10;;;;;;;;;;5061905;28;20012;-89
2023/08/21 10:12:45;;;;;;;3.17;0.80;;;;;;;;;;5051846;28;20032;-90
2023/08/21 10:15:10;;;;;;;8.43;1.80;;;;;;;;;;5060509;28;20020;-90
2023/08/21 10:17:36;;;;;;;3.17;1.00;;;;;;;;;;5060502;28;20028;-88
2023/08/21 10:20:03;;;;;;;6.53;1.05;;;;;;;;;;5060948;28;20066;-87
2023/08/21 10:22:43;;;;;;;4.53;1.42;;;;;;;;;;5059374;28;20549;-87
2023/08/21 10:25:22;;;;;;;7.40;1.52;;;;;;;;;;5050470;28;20020;-87
2023/08/21 10:27:59;;;;;;;6.55;1.50;;;;;;;;;;5065119;28;20697;-88
2023/08/21 10:30:27;;;;;;;5.82;1.10;;;;;;;;;;5050857;28;20029;-87
2023/08/21 10:32:56;;;;;;;6.47;1.40;;;;;;;;;;5050317;28;20284;-87
2023/08/21 10:35:23;;;;;;;5.63;1.50;;;;;;;;;;5052456;28;21612;-87
2023/08/21 10:38:07;;;;;;;7.75;1.27;;;;;;;;;;5087682;28;20040;-87
2023/08/21 10:40:33;;;;;;;3.85;1.02;;;;;;;;;;5055057;28;20020;-87
2023/08/21 10:42:59;;;;;;;5.30;1.35;;;;;;;;;;5071282;28;20016;-87
2023/08/21 10:45:27;;;;;;;7.07;1.80;;;;;;;;;;5065105;28;20138;-87
2023/08/21 10:47:55;;;;;;;8.75;1.30;;;;;;;;;;5072034;28;20016;-88
2023/08/21 10:50:21;;;;;;;5.28;1.48;;;;;;;;;;5054434;28;20066;-87
2023/08/21 10:52:51;;;;;;;5.32;1.27;;;;;;;;;;5053632;28;20025;-87
2023/08/21 10:55:18;;;;;;;3.20;1.20;;;;;;;;;;5054560;28;20554;-87
2023/08/21 10:57:43;;;;;;;4.57;1.00;;;;;;;;;;5054581;28;20089;-88
2023/08/21 11:00:13;;;;;;;6.97;1.60;;;;;;;;;;5054737;28;20455;-87
2023/08/21 11:02:39;;;;;;;6.07;1.10;;;;;;;;;;5065376;28;20019;-88
2023/08/21 11:05:05;;;;;;;2.22;1.02;;;;;;;;;;5053720;28;20108;-87
2023/08/21 11:07:30;;;;;;;4.45;0.90;;;;;;;;;;5072499;28;20021;-87
2023/08/21 11:09:56;;;;;;;3.55;1.05;;;;;;;;;;5057623;28;20108;-88
2023/08/21 11:12:22;;;;;;;5.55;1.17;;;;;;;;;;5070580;28;20021;-86
2023/08/21 11:14:47;;;;;;;6.97;1.15;;;;;;;;;;5053412;28;20025;-86
2023/08/21 11:17:13;;;;;;;5.93;1.10;;;;;;;;;;5053915;28;20035;-87
2023/08/21 11:19:39;;;;;;;5.35;1.00;;;;;;;;;;5051872;28;20021;-87
2023/08/21 11:22:07;;;;;;;6.45;1.20;;;;;;;;;;5070949;28;20088;-88
2023/08/21 11:24:33;;;;;;;3.20;1.15;;;;;;;;;;5063438;28;20371;-87
2023/08/21 11:26:58;;;;;;;9.27;1.33;;;;;;;;;;5054425;28;20021;-87
2023/08/21 11:29:24;;;;;;;9.02;1.33;;;;;;;;;;5053702;28;20523;-85
2023/08/21 11:31:53;;;;;;;6.55;2.10;;;;;;;;;;5088494;28;20085;-88
2023/08/21 11:34:19;;;;;;;4.30;1.50;;;;;;;;;;5052576;28;20038;-86
2023/08/21 11:36:45;;;;;;;7.07;1.20;;;;;;;;;;5057614;28;20020;-87
2023/08/21 11:39:11;;;;;;;3.17;1.00;;;;;;;;;;5064048;28;20135;-87
2023/08/21 11:41:53;;;;;;;5.53;1.55;;;;;;;;;;5060846;28;20028;-87
2023/08/21 11:44:18;;;;;;;7.97;1.40;;;;;;;;;;5062182;28;20515;-86
2023/08/21 11:46:46;;;;;;;5.32;1.52;;;;;;;;;;5077356;28;20066;-87
2023/08/21 11:49:12;;;;;;;6.43;1.35;;;;;;;;;;5074520;28;20024;-87
2023/08/21 11:51:40;;;;;;;4.05;1.00;;;;;;;;;;5059927;28;20107;-87
2023/08/21 11:54:06;;;;;;;4.78;1.30;;;;;;;;;;5064053;28;20480;-87
2023/08/21 11:56:31;;;;;;;4.20;1.08;;;;;;;;;;5056411;28;20086;-87
2023/08/21 11:59:01;;;;;;;8.23;1.25;;;;;;;;;;5068413;28;20016;-88
2023/08/21 12:01:26;;;;;;;5.60;0.93;;;;;;;;;;5069575;28;20031;-88
2023/08/21 12:03:54;;;;;;;8.60;1.25;;;;;;;;;;5053620;28;20449;-88
2023/08/21 12:06:21;;;;;;;4.43;1.23;;;;;;;;;;5072262;28;20464;-88
2023/08/21 12:08:46;;;;;;;8.20;1.90;;;;;;;;;;5075632;28;20016;-89
2023/08/21 12:11:11;;;;;;;3.42;1.00;;;;;;;;;;5071453;28;20017;-88
2023/08/21 12:13:37;;;;;;;2.10;1.20;;;;;;;;;;5054517;28;20032;-87
2023/08/21 12:16:05;;;;;;;4.95;1.20;;;;;;;;;;5062411;28;20027;-88
2023/08/21 12:18:30;;;;;;;2.33;1.02;;;;;;;;;;5053655;28;20032;-88
2023/08/21 12:20:55;;;;;;;4.43;1.40;;;;;;;;;;5059272;28;20033;-88
2023/08/21 12:23:21;;;;;;;4.82;1.30;;;;;;;;;;5057585;28;20020;-86
2023/08/21 12:25:46;;;;;;;2.47;1.20;;;;;;;;;;5079958;28;20103;-86
2023/08/21 12:28:11;;;;;;;6.68;1.73;;;;;;;;;;5067442;28;20012;-86
2023/08/21 12:30:37;;;;;;;7.63;1.40;;;;;;;;;;5081015;28;20016;-85
2023/08/21 12:33:02;;;;;;;5.55;1.30;;;;;;;;;;5061068;28;20123;-85
2023/08/21 12:35:30;;;;;;;6.45;1.45;;;;;;;;;;5066831;28;20111;-85
2023/08/21 12:37:58;;;;;;;4.50;1.40;;;;;;;;;;5057597;28;20025;-85
2023/08/21 12:40:24;;;;;;;6.28;1.35;;;;;;;;;;5047950;28;20111;-85
2023/08/21 12:42:50;;;;;;;6.93;1.60;;;;;;;;;;5068889;28;20116;-85
2023/08/21 12:45:16;;;;;;;5.50;1.55;;;;;;;;;;5060789;28;20024;-85
2023/08/21 12:47:41;;;;;;;2.55;1.25;;;;;;;;;;5063396;28;20164;-84
2023/08/21 12:50:09;;;;;;;2.55;1.10;;;;;;;;;;5064273;28;20048;-85
2023/08/21 12:52:34;;;;;;;5.32;1.42;;;;;;;;;;5056065;28;20016;-86
2023/08/21 12:55:03;;;;;;;7.20;1.65;;;;;;;;;;5083643;28;20108;-86
2023/08/21 12:57:35;;;;;;;4.07;1.55;;;;;;;;;;5076529;28;20114;-85
2023/08/21 13:00:00;;;;;;;6.50;1.55;;;;;;;;;;5076301;28;20453;-86
2023/08/21 13:02:34;;;;;;;4.65;1.42;;;;;;;;;;5072647;28;20108;-86
2023/08/21 13:05:01;;;;;;;5.32;1.52;;;;;;;;;;5064888;28;20734;-85
2023/08/21 13:07:26;;;;;;;5.72;1.55;;;;;;;;;;5107764;28;20016;-86
2023/08/21 13:09:55;;;;;;;6.15;1.85;;;;;;;;;;5072437;28;20020;-85
2023/08/21 13:12:20;;;;;;;7.53;1.63;;;;;;;;;;5078868;28;20459;-83
2023/08/21 13:14:48;;;;;;;4.20;1.80;;;;;;;;;;5083201;28;20524;-85
2023/08/21 13:17:17;;;;;;;8.10;1.50;;;;;;;;;;5075329;28;20027;-84
2023/08/21 13:19:42;;;;;;;3.50;1.35;;;;;;;;;;5071504;28;20036;-84
2023/08/21 13:22:07;;;;;;;7.78;1.58;;;;;;;;;;5067909;28;20042;-84
2023/08/21 13:24:33;;;;;;;8.88;1.77;;;;;;;;;;5067856;28;20024;-84
2023/08/21 13:26:58;;;;;;;4.82;1.70;;;;;;;;;;5065316;28;20515;-83
2023/08/21 13:29:24;;;;;;;4.05;1.60;;;;;;;;;;5044451;28;20052;-84
2023/08/21 13:31:49;;;;;;;8.40;1.50;;;;;;;;;;5053475;28;20044;-84
2023/08/21 13:34:14;;;;;;;6.95;1.75;;;;;;;;;;5053541;28;20028;-84
2023/08/21 13:36:43;;;;;;;2.75;1.27;;;;;;;;;;5045833;28;21162;-83
2023/08/21 13:39:12;;;;;;;5.43;1.40;;;;;;;;;;5073659;28;20028;-83
2023/08/21 13:41:38;;;;;;;4.07;1.40;;;;;;;;;;5072882;28;20012;-83
2023/08/21 13:44:03;;;;;;;8.90;1.58;;;;;;;;;;5055348;28;20496;-83
2023/08/21 13:46:28;;;;;;;6.45;1.00;;;;;;;;;;5074433;28;20016;-82
2023/08/21 13:48:54;;;;;;;4.50;1.30;;;;;;;;;;5054771;28;20096;-82
2023/08/21 13:51:19;;;;;;;4.40;1.33;;;;;;;;;;5068920;28;20379;-83
2023/08/21 13:53:44;;;;;;;3.67;1.17;;;;;;;;;;5055002;28;20070;-82
2023/08/21 13:56:10;;;;;;;7.13;1.40;;;;;;;;;;5073646;28;20031;-83
2023/08/21 13:58:35;;;;;;;3.53;1.15;;;;;;;;;;5055306;28;20020;-83
2023/08/21 14:01:00;;;;;;;3.05;1.42;;;;;;;;;;5051665;28;20017;-83
2023/08/21 14:03:26;;;;;;;3.38;1.45;;;;;;;;;;5069980;28;20349;-82
2023/08/21 14:05:51;;;;;;;5.30;1.20;;;;;;;;;;5054841;28;20078;-83
2023/08/21 14:08:16;;;;;;;2.97;1.17;;;;;;;;;;5066519;28;20036;-82
2023/08/21 14:10:41;;;;;;;4.38;1.30;;;;;;;;;;5053562;28;20024;-83
2023/08/21 14:13:07;;;;;;;3.03;1.17;;;;;;;;;;5068749;28;20028;-82
2023/08/21 14:15:33;;;;;;;3.47;1.25;;;;;;;;;;5075385;28;20012;-83
2023/08/21 14:17:59;;;;;;;5.78;1.20;;;;;;;;;;5062258;28;20069;-82
2023/08/21 14:20:24;;;;;;;5.80;1.33;;;;;;;;;;5056021;28;20059;-82
2023/08/21 14:22:49;;;;;;;5.60;1.40;;;;;;;;;;5072526;28;20030;-84
2023/08/21 14:25:15;;;;;;;3.08;1.27;;;;;;;;;;5059183;28;20131;-84
2023/08/21 14:27:40;;;;;;;5.20;1.33;;;;;;;;;;5093735;28;20103;-84
2023/08/21 14:30:07;;;;;;;5.35;1.42;;;;;;;;;;5071005;28;20017;-83
2023/08/21 14:32:32;;;;;;;2.72;0.98;;;;;;;;;;5079398;28;20012;-84
2023/08/21 14:34:58;;;;;;;4.53;1.20;;;;;;;;;;5057638;28;20050;-84